Time;durP1;ratioP1;P1;durP2;ratioP2;P2;SDS_P1;SDS_P2;PMS_P1;PMS_P2;Temp;Humidity;BMP_temperature;BMP_pressure;BME280_temperature;BME280_humidity;BME280_pressure;Samples;Min_cycle;Max_cycle;Signal;HPM_P1;HPM_P2
2023/10/06 00:01:42;;;;;;;0.00;0.00;;;;;;;12.26;100.00;101151.47;5056913;28;20021;-72
2023/10/06 00:04:08;;;;;;;0.00;0.00;;;;;;;12.27;100.00;101150.38;5045289;28;20116;-71
2023/10/06 00:06:37;;;;;;;0.00;0.00;;;;;;;12.29;100.00;101150.94;5057217;28;20094;-75
2023/10/06 00:09:06;;;;;;;0.00;0.00;;;;;;;12.29;100.00;101145.47;5065415;28;20039;-73
2023/10/06 00:11:32;;;;;;;0.00;0.00;;;;;;;12.29;100.00;101150.94;5036046;28;20032;-72
2023/10/06 00:14:07;;;;;;;0.00;0.00;;;;;;;12.32;100.00;101133.97;5064966;28;20078;-72
2023/10/06 00:16:39;;;;;;;0.00;0.00;;;;;;;12.38;100.00;101143.91;5048676;28;20075;-72
2023/10/06 00:21:47;;;;;;;0.00;0.00;;;;;;;12.46;100.00;101144.53;5055732;28;20036;-73
2023/10/06 00:24:13;;;;;;;0.00;0.00;;;;;;;12.47;100.00;101135.19;5041603;28;20028;-72
2023/10/06 00:26:42;;;;;;;0.00;0.00;;;;;;;12.49;100.00;101139.34;5038111;28;20112;-73
2023/10/06 00:29:17;;;;;;;0.00;0.00;;;;;;;12.47;100.00;101135.19;5044809;28;20091;-72
2023/10/06 00:31:47;;;;;;;0.00;0.00;;;;;;;12.49;100.00;101138.53;5037072;28;20024;-71
2023/10/06 00:34:16;;;;;;;0.00;0.00;;;;;;;12.48;100.00;101143.16;5043560;28;20078;-73
2023/10/06 00:36:41;;;;;;;0.00;0.00;;;;;;;12.49;100.00;101138.53;5045599;28;20040;-72
2023/10/06 00:39:12;;;;;;;0.00;0.00;;;;;;;12.48;100.00;101136.84;5031457;28;20150;-73
2023/10/06 00:41:43;;;;;;;0.00;0.00;;;;;;;12.45;100.00;101137.38;5056933;28;20471;-73
2023/10/06 00:44:09;;;;;;;0.00;0.00;;;;;;;12.43;100.00;101145.06;5042040;28;20037;-73
2023/10/06 00:46:34;;;;;;;0.00;0.00;;;;;;;12.42;100.00;101144.22;5048681;28;20514;-73
2023/10/06 00:49:04;;;;;;;0.00;0.00;;;;;;;12.36;100.00;101157.03;5046593;28;20036;-72
2023/10/06 00:51:30;;;;;;;0.00;0.00;;;;;;;12.35;100.00;101138.09;5046633;28;20079;-73
2023/10/06 00:53:56;;;;;;;0.00;0.00;;;;;;;12.36;100.00;101140.59;5045211;28;20036;-72
2023/10/06 00:56:25;;;;;;;0.00;0.00;;;;;;;12.36;100.00;101135.09;5025348;28;20047;-73
2023/10/06 00:58:51;;;;;;;0.00;0.00;;;;;;;12.39;100.00;101144.72;5048122;28;20030;-73
2023/10/06 01:01:18;;;;;;;0.00;0.00;;;;;;;12.35;100.00;101143.59;5058341;28;20056;-73
2023/10/06 01:03:48;;;;;;;0.00;0.00;;;;;;;12.40;100.00;101146.41;5043482;28;20020;-72
2023/10/06 01:06:23;;;;;;;0.00;0.00;;;;;;;12.43;100.00;101142.31;5022702;28;20118;-73
2023/10/06 01:08:55;;;;;;;0.05;0.05;;;;;;;12.45;100.00;101142.88;5042542;28;20085;-72
2023/10/06 01:11:26;;;;;;;0.00;0.00;;;;;;;12.43;100.00;101139.56;5037311;28;20067;-73
2023/10/06 01:14:00;;;;;;;0.00;0.00;;;;;;;12.47;100.00;101146.16;5047474;28;20187;-72
2023/10/06 01:16:30;;;;;;;0.00;0.00;;;;;;;12.47;100.00;101135.19;5043319;28;20039;-74
2023/10/06 01:19:47;;;;;;;0.00;0.00;;;;;;;12.44;100.00;101130.22;5065641;28;20027;-75
2023/10/06 01:21:48;;;;;;;0.03;0.03;;;;;;;12.44;100.00;101138.47;5048736;28;20486;-74
2023/10/06 01:24:27;;;;;;;0.00;0.00;;;;;;;12.44;100.00;101135.72;5064813;28;20077;-75
2023/10/06 01:26:54;;;;;;;0.00;0.00;;;;;;;12.39;100.00;101126.34;5057277;28;20032;-74
2023/10/06 01:29:26;;;;;;;0.10;0.10;;;;;;;12.42;100.00;101129.69;5050696;28;20017;-75
2023/10/06 01:31:51;;;;;;;0.00;0.00;;;;;;;12.43;100.00;101123.13;5031357;28;20181;-72
2023/10/06 01:34:18;;;;;;;0.00;0.00;;;;;;;12.45;100.00;101115.44;5046468;28;20079;-72
2023/10/06 01:36:45;;;;;;;0.00;0.00;;;;;;;12.48;100.00;101118.47;5060760;28;20046;-73
2023/10/06 01:39:16;;;;;;;0.00;0.00;;;;;;;12.46;100.00;101122.59;5041806;28;20107;-74
2023/10/06 01:41:46;;;;;;;0.00;0.00;;;;;;;12.50;100.00;101123.69;5059176;28;20016;-74
2023/10/06 01:44:12;;;;;;;0.00;0.00;;;;;;;12.52;100.00;101121.53;5059953;28;20029;-73
2023/10/06 01:46:39;;;;;;;0.00;0.00;;;;;;;12.48;100.00;101132.19;5068618;28;20036;-72
2023/10/06 01:49:10;;;;;;;0.00;0.00;;;;;;;12.45;100.00;101126.41;5063294;28;20036;-73
2023/10/06 01:51:38;;;;;;;0.00;0.00;;;;;;;12.35;100.00;101122.50;5059934;28;20162;-73
2023/10/06 01:54:07;;;;;;;0.00;0.00;;;;;;;12.38;100.00;101138.44;5061439;28;20040;-75
2023/10/06 01:56:36;;;;;;;0.00;0.00;;;;;;;12.37;100.00;101130.47;5053946;28;20033;-75
2023/10/06 01:59:04;;;;;;;0.00;0.00;;;;;;;12.36;100.00;101121.38;5058447;28;20057;-74
2023/10/06 02:01:29;;;;;;;0.00;0.00;;;;;;;12.33;100.00;101119.16;5057294;28;20020;-74
2023/10/06 02:03:55;;;;;;;0.00;0.00;;;;;;;12.33;100.00;101119.16;5028647;28;20037;-75
2023/10/06 02:06:20;;;;;;;0.00;0.00;;;;;;;12.34;100.00;101120.03;5036448;28;21934;-74
2023/10/06 02:08:50;;;;;;;0.00;0.00;;;;;;;12.36;100.00;101110.41;5028979;28;20028;-75
2023/10/06 02:11:17;;;;;;;0.00;0.00;;;;;;;12.36;100.00;101106.88;5040542;28;20024;-73
2023/10/06 02:13:42;;;;;;;0.00;0.00;;;;;;;12.37;100.00;101103.84;5040692;28;20490;-74
2023/10/06 02:16:09;;;;;;;0.00;0.00;;;;;;;12.38;100.00;101107.41;5045431;28;20044;-74
2023/10/06 02:18:37;;;;;;;0.00;0.00;;;;;;;12.38;100.00;101115.63;5055922;28;20821;-74
2023/10/06 02:21:09;;;;;;;0.00;0.00;;;;;;;12.40;100.00;101121.72;5058452;28;20025;-74
2023/10/06 02:23:37;;;;;;;0.00;0.00;;;;;;;12.37;100.00;101114.81;5047308;28;20407;-76
2023/10/06 02:26:07;;;;;;;0.00;0.00;;;;;;;12.35;100.00;101108.78;5067826;28;20029;-74
2023/10/06 02:28:33;;;;;;;0.00;0.00;;;;;;;12.35;100.00;101111.53;5053224;28;20517;-75
2023/10/06 02:31:05;;;;;;;0.00;0.00;;;;;;;12.39;100.00;101106.34;5046262;28;20386;-74
2023/10/06 02:33:38;;;;;;;0.00;0.00;;;;;;;12.44;100.00;101113.78;5037614;28;20174;-74
2023/10/06 02:36:23;;;;;;;0.00;0.00;;;;;;;12.43;100.00;101118.44;5059731;28;20028;-74
2023/10/06 02:38:52;;;;;;;0.00;0.00;;;;;;;12.45;100.00;101109.94;5047167;28;20059;-75
2023/10/06 02:41:25;;;;;;;0.00;0.00;;;;;;;12.45;100.00;101118.19;5063952;28;20058;-74
2023/10/06 02:43:52;;;;;;;0.00;0.00;;;;;;;12.39;100.00;101111.81;5065930;28;20458;-74
2023/10/06 02:46:23;;;;;;;0.00;0.00;;;;;;;12.36;100.00;101113.16;5027581;28;20027;-74
2023/10/06 02:48:49;;;;;;;0.00;0.00;;;;;;;12.39;100.00;101118.13;5038317;28;20037;-74
2023/10/06 02:51:32;;;;;;;0.00;0.00;;;;;;;12.37;100.00;101112.09;5059072;28;20079;-73
2023/10/06 02:56:40;;;;;;;0.00;0.00;;;;;;;12.38;100.00;101116.50;5062578;28;20036;-74
2023/10/06 02:59:39;;;;;;;0.00;0.00;;;;;;;12.42;100.00;101115.97;5064538;28;20053;-72
2023/10/06 03:02:06;;;;;;;0.00;0.00;;;;;;;12.38;100.00;101113.75;5044872;28;20039;-74
2023/10/06 03:04:36;;;;;;;0.00;0.00;;;;;;;12.42;100.00;101126.94;5044780;28;20028;-74
2023/10/06 03:07:02;;;;;;;0.05;0.05;;;;;;;12.42;100.00;101121.44;5062863;28;20032;-74
2023/10/06 03:12:00;;;;;;;0.00;0.00;;;;;;;12.51;100.00;101119.88;5059661;28;20064;-72
2023/10/06 03:14:37;;;;;;;0.00;0.00;;;;;;;12.51;100.00;101114.38;5060412;28;20109;-74
2023/10/06 03:17:08;;;;;;;0.00;0.00;;;;;;;12.51;100.00;101108.91;5056669;28;20359;-73
2023/10/06 03:19:36;;;;;;;0.00;0.00;;;;;;;12.56;100.00;101111.69;5041496;28;20021;-74
2023/10/06 03:22:05;;;;;;;0.00;0.00;;;;;;;12.57;100.00;101124.31;5059199;28;20016;-73
2023/10/06 03:24:31;;;;;;;0.00;0.00;;;;;;;12.62;100.00;101123.53;5059018;28;21196;-73
2023/10/06 03:27:12;;;;;;;0.00;0.00;;;;;;;12.62;100.00;101126.28;5030706;28;20059;-75
2023/10/06 03:29:55;;;;;;;0.00;0.00;;;;;;;12.66;100.00;101111.78;5059265;28;20033;-73
2023/10/06 03:32:32;;;;;;;0.00;0.00;;;;;;;12.67;100.00;101110.66;5061416;28;20020;-73
2023/10/06 03:35:12;;;;;;;0.00;0.00;;;;;;;12.69;100.00;101111.25;5058089;28;20055;-73
2023/10/06 03:37:51;;;;;;;0.00;0.00;;;;;;;12.71;100.00;101114.53;5025492;28;20997;-75
2023/10/06 03:40:23;;;;;;;0.00;0.00;;;;;;;12.77;100.00;101122.81;5048548;28;20091;-74
2023/10/06 03:42:49;;;;;;;0.00;0.00;;;;;;;12.77;100.00;101111.84;5061976;28;20063;-74
2023/10/06 03:45:26;;;;;;;0.00;0.00;;;;;;;12.79;100.00;101115.13;5041076;28;20028;-73
2023/10/06 03:48:08;;;;;;;0.00;0.00;;;;;;;12.79;100.00;101106.91;5048711;28;20017;-73
2023/10/06 03:50:37;;;;;;;0.00;0.00;;;;;;;12.83;100.00;101110.78;5041297;28;20712;-73
2023/10/06 03:53:03;;;;;;;0.00;0.00;;;;;;;12.82;100.00;101106.38;5044949;28;20775;-73
2023/10/06 03:55:28;;;;;;;0.00;0.00;;;;;;;12.82;100.00;101106.38;5039213;28;20040;-73
2023/10/06 03:57:54;;;;;;;0.00;0.00;;;;;;;12.79;100.00;101098.66;5012139;28;20038;-73
2023/10/06 04:00:26;;;;;;;0.00;0.00;;;;;;;12.78;100.00;101110.75;5021021;28;20025;-74
2023/10/06 04:02:52;;;;;;;0.00;0.00;;;;;;;12.80;100.00;101119.53;5047763;28;20024;-73
2023/10/06 04:05:18;;;;;;;0.00;0.00;;;;;;;12.75;100.00;101112.91;5054017;28;20122;-74
2023/10/06 04:07:45;;;;;;;0.00;0.00;;;;;;;12.73;100.00;101117.84;5030834;28;20043;-75
2023/10/06 04:10:14;;;;;;;0.00;0.00;;;;;;;12.70;100.00;101114.81;5050953;28;20082;-73
2023/10/06 04:12:40;;;;;;;0.00;0.00;;;;;;;12.67;100.00;101107.09;5040730;28;20541;-73
2023/10/06 04:15:06;;;;;;;0.00;0.00;;;;;;;12.66;100.00;101111.78;5047019;28;20028;-75
2023/10/06 04:17:31;;;;;;;0.00;0.00;;;;;;;12.64;100.00;101102.13;5037721;28;20463;-73
2023/10/06 04:19:56;;;;;;;0.00;0.00;;;;;;;12.64;100.00;101102.13;5026119;28;20119;-73
2023/10/06 04:22:22;;;;;;;0.00;0.00;;;;;;;12.56;100.00;101092.50;5052098;28;20029;-74
2023/10/06 04:24:47;;;;;;;0.00;0.00;;;;;;;12.58;100.00;101096.59;5045175;28;20028;-74
2023/10/06 04:27:13;;;;;;;0.00;0.00;;;;;;;12.54;100.00;101097.41;5039185;28;20055;-74
2023/10/06 04:29:40;;;;;;;0.00;0.00;;;;;;;12.54;100.00;101097.41;5041484;28;20033;-73
2023/10/06 04:32:08;;;;;;;0.00;0.00;;;;;;;12.53;100.00;101106.75;5037791;28;20028;-73
2023/10/06 04:34:36;;;;;;;0.00;0.00;;;;;;;12.44;100.00;101089.09;5056319;28;20687;-73
2023/10/06 04:37:03;;;;;;;0.00;0.00;;;;;;;12.48;100.00;101099.25;5055844;28;20047;-74
2023/10/06 04:39:28;;;;;;;0.00;0.00;;;;;;;12.45;100.00;101098.97;5024658;28;20062;-74
2023/10/06 04:41:55;;;;;;;0.00;0.00;;;;;;;12.39;100.00;101096.19;5036591;28;20017;-73
2023/10/06 04:44:21;;;;;;;0.00;0.00;;;;;;;12.45;100.00;101101.72;5056238;28;20056;-74
2023/10/06 04:46:46;;;;;;;0.00;0.00;;;;;;;12.46;100.00;101100.66;5023621;28;20021;-74
2023/10/06 04:49:12;;;;;;;0.00;0.00;;;;;;;12.49;100.00;101094.63;5061433;28;20032;-74
2023/10/06 04:51:38;;;;;;;0.00;0.00;;;;;;;12.48;100.00;101087.47;5052557;28;20426;-72
2023/10/06 04:54:07;;;;;;;0.00;0.00;;;;;;;12.51;100.00;101096.03;5008806;28;20094;-72
2023/10/06 04:56:33;;;;;;;0.00;0.00;;;;;;;12.55;100.00;101074.38;5052550;28;21708;-73
2023/10/06 04:58:59;;;;;;;0.00;0.00;;;;;;;12.58;100.00;101087.56;5057631;28;20055;-73
2023/10/06 05:01:28;;;;;;;0.00;0.00;;;;;;;12.56;100.00;101084.25;5038431;28;20040;-73
2023/10/06 05:03:54;;;;;;;0.00;0.00;;;;;;;12.60;100.00;101076.31;5041557;28;20055;-73
2023/10/06 05:06:21;;;;;;;0.00;0.00;;;;;;;12.54;100.00;101064.47;5056564;28;20016;-74
2023/10/06 05:08:47;;;;;;;0.00;0.00;;;;;;;12.56;100.00;101073.28;5042227;28;20058;-73
2023/10/06 05:11:19;;;;;;;0.00;0.00;;;;;;;12.48;100.00;101065.53;5060673;28;20024;-76
2023/10/06 05:13:47;;;;;;;0.10;0.10;;;;;;;12.58;100.00;101076.59;5056861;28;20177;-74
2023/10/06 05:16:13;;;;;;;0.00;0.00;;;;;;;12.48;100.00;101065.53;5059956;28;20525;-73
2023/10/06 05:18:39;;;;;;;0.00;0.00;;;;;;;12.49;100.00;101083.66;5059918;28;20063;-73
2023/10/06 05:21:06;;;;;;;0.00;0.00;;;;;;;12.47;100.00;101083.91;5042110;28;20451;-73
2023/10/06 05:23:34;;;;;;;0.00;0.00;;;;;;;12.38;100.00;101072.59;5054885;28;20032;-74
2023/10/06 05:26:02;;;;;;;0.00;0.00;;;;;;;12.39;100.00;101079.72;5037628;28;20040;-74
2023/10/06 05:28:30;;;;;;;0.00;0.00;;;;;;;12.33;100.00;101069.81;5057905;28;20059;-74
2023/10/06 05:30:56;;;;;;;0.00;0.00;;;;;;;12.27;100.00;101065.38;5036631;28;20074;-73
2023/10/06 05:33:22;;;;;;;0.00;0.00;;;;;;;12.31;100.00;101077.47;5060545;28;20584;-72
2023/10/06 05:35:48;;;;;;;0.00;0.00;;;;;;;12.21;100.00;101069.19;5035114;28;20064;-72
2023/10/06 05:38:14;;;;;;;0.00;0.00;;;;;;;12.26;100.00;101088.41;5025620;28;20031;-73
2023/10/06 05:40:49;;;;;;;0.00;0.00;;;;;;;12.20;100.00;101082.03;5024106;28;20029;-72
2023/10/06 05:43:16;;;;;;;0.10;0.10;;;;;;;12.19;100.00;101096.84;5037266;28;20033;-74
2023/10/06 05:45:57;;;;;;;0.00;0.00;;;;;;;12.18;100.00;101097.13;5037801;28;20390;-72
2023/10/06 05:48:25;;;;;;;0.00;0.00;;;;;;;12.08;100.00;101086.06;5054778;28;20524;-72
2023/10/06 05:50:52;;;;;;;0.00;0.00;;;;;;;12.09;100.00;101093.19;5061557;28;20036;-72
2023/10/06 05:53:23;;;;;;;0.00;0.00;;;;;;;12.10;100.00;101103.88;5031409;28;20587;-71
2023/10/06 05:55:54;;;;;;;0.00;0.00;;;;;;;12.09;100.00;101112.38;5044345;28;20032;-72
2023/10/06 05:58:23;;;;;;;0.00;0.00;;;;;;;12.07;100.00;101098.09;5032758;28;20053;-71
2023/10/06 06:00:51;;;;;;;0.10;0.10;;;;;;;12.07;100.00;101100.84;5026923;28;20037;-72
2023/10/06 06:03:20;;;;;;;0.00;0.00;;;;;;;12.17;100.00;101107.25;5056107;28;20494;-73
2023/10/06 06:05:52;;;;;;;0.00;0.00;;;;;;;12.12;100.00;101112.69;5050653;28;20047;-74
2023/10/06 06:08:18;;;;;;;0.00;0.00;;;;;;;12.18;100.00;101117.13;5044943;28;20032;-72
2023/10/06 06:10:45;;;;;;;0.00;0.00;;;;;;;12.14;100.00;101099.53;5040148;28;20016;-72
2023/10/06 06:13:13;;;;;;;0.10;0.10;;;;;;;12.13;100.00;101102.53;5056136;28;20056;-73
2023/10/06 06:15:39;;;;;;;0.00;0.00;;;;;;;12.10;100.00;101106.63;5038203;28;20020;-73
2023/10/06 06:18:09;;;;;;;0.00;0.00;;;;;;;12.07;100.00;101109.06;5066286;28;20093;-72
2023/10/06 06:20:41;;;;;;;0.00;0.00;;;;;;;12.02;100.00;101113.41;5056937;28;20554;-71
2023/10/06 06:23:12;;;;;;;0.00;0.00;;;;;;;11.96;100.00;101117.19;5062682;28;20071;-73
2023/10/06 06:25:38;;;;;;;0.00;0.00;;;;;;;11.91;100.00;101116.28;5026872;28;20051;-72
2023/10/06 06:28:05;;;;;;;0.00;0.00;;;;;;;11.87;100.00;101113.22;5055708;28;20037;-72
2023/10/06 06:30:34;;;;;;;0.00;0.00;;;;;;;11.91;100.00;101119.84;5058288;28;20069;-72
2023/10/06 06:33:01;;;;;;;0.00;0.00;;;;;;;11.88;100.00;101112.13;5042385;28;20991;-74
2023/10/06 06:35:29;;;;;;;0.00;0.00;;;;;;;11.84;100.00;101116.47;5066546;28;20012;-73
2023/10/06 06:38:01;;;;;;;0.00;0.00;;;;;;;11.86;100.00;101123.34;5038119;28;20047;-72
2023/10/06 06:40:31;;;;;;;0.00;0.00;;;;;;;11.88;100.00;101128.56;5048916;28;20459;-73
2023/10/06 06:42:59;;;;;;;0.00;0.00;;;;;;;11.88;100.00;101128.56;5055655;28;20055;-74
2023/10/06 06:45:25;;;;;;;0.00;0.00;;;;;;;11.80;100.00;101126.31;5037007;28;20020;-72
2023/10/06 06:47:52;;;;;;;0.00;0.00;;;;;;;11.84;100.00;101138.38;5052004;28;20032;-71
2023/10/06 06:50:18;;;;;;;0.08;0.08;;;;;;;11.82;100.00;101141.38;5060931;28;20021;-72
2023/10/06 06:52:49;;;;;;;0.00;0.00;;;;;;;11.77;100.00;101127.66;5040885;28;20028;-70
2023/10/06 06:55:15;;;;;;;0.00;0.00;;;;;;;11.83;100.00;101134.00;5044235;28;20032;-71
2023/10/06 06:57:45;;;;;;;0.00;0.00;;;;;;;11.82;100.00;101135.91;5023785;28;20479;-73
2023/10/06 07:00:29;;;;;;;0.00;0.00;;;;;;;11.90;100.00;101131.06;5047823;28;20028;-71
2023/10/06 07:02:56;;;;;;;0.00;0.00;;;;;;;12.00;100.00;101140.25;5059815;28;20029;-71
2023/10/06 07:05:22;;;;;;;0.00;0.00;;;;;;;12.11;100.00;101138.44;5039274;28;20025;-71
2023/10/06 07:07:51;;;;;;;0.00;0.00;;;;;;;12.14;100.00;101126.13;5056221;28;20420;-72
2023/10/06 07:10:23;;;;;;;0.00;0.00;;;;;;;12.34;100.00;101142.78;5041830;28;20017;-71
2023/10/06 07:12:50;;;;;;;0.00;0.00;;;;;;;12.47;100.00;101140.69;5044314;28;20605;-71
2023/10/06 07:15:20;;;;;;;0.00;0.00;;;;;;;12.69;100.00;101155.16;5057640;28;20025;-71
2023/10/06 07:17:45;;;;;;;0.00;0.00;;;;;;;12.91;100.00;101152.28;5042701;28;20063;-72
2023/10/06 07:20:16;;;;;;;0.00;0.00;;;;;;;13.17;100.00;101149.72;5059209;28;20427;-71
2023/10/06 07:22:45;;;;;;;0.00;0.00;;;;;;;13.36;100.00;101146.53;5023430;28;20036;-72
2023/10/06 07:25:15;;;;;;;0.00;0.00;;;;;;;13.52;100.00;101150.16;5057393;28;20023;-72
2023/10/06 07:27:41;;;;;;;0.00;0.00;;;;;;;13.72;100.00;101153.00;5039005;28;20111;-72
2023/10/06 07:30:10;;;;;;;0.00;0.00;;;;;;;14.09;100.00;101141.03;5024636;28;20112;-72
2023/10/06 07:32:40;;;;;;;0.00;0.00;;;;;;;14.81;100.00;101143.00;5035461;28;20031;-72
2023/10/06 07:35:11;;;;;;;0.00;0.00;;;;;;;15.64;100.00;101155.44;5044581;28;20059;-72
2023/10/06 07:37:39;;;;;;;0.00;0.00;;;;;;;16.46;95.54;101154.16;5013185;28;20052;-72
2023/10/06 07:40:06;;;;;;;0.00;0.00;;;;;;;17.18;89.71;101159.03;5026793;28;20120;-72
2023/10/06 07:42:32;;;;;;;0.00;0.00;;;;;;;17.62;85.60;101146.94;5024875;28;20053;-72
2023/10/06 07:44:57;;;;;;;0.00;0.00;;;;;;;18.24;82.71;101146.09;5041072;28;20843;-72
2023/10/06 07:47:24;;;;;;;0.00;0.00;;;;;;;19.39;77.26;101157.72;5018225;28;20027;-72
2023/10/06 07:49:50;;;;;;;0.00;0.00;;;;;;;20.15;73.69;101156.38;5013357;28;20051;-72
2023/10/06 07:52:17;;;;;;;0.00;0.00;;;;;;;20.70;70.68;101158.94;5032035;28;20025;-72
2023/10/06 07:54:43;;;;;;;0.00;0.00;;;;;;;21.00;69.76;101172.41;5034098;28;20107;-71
2023/10/06 07:57:12;;;;;;;0.00;0.00;;;;;;;21.68;68.15;101178.56;5048242;28;20028;-72
2023/10/06 07:59:38;;;;;;;0.00;0.00;;;;;;;22.43;65.04;101167.38;5026326;28;20109;-72
2023/10/06 08:02:04;;;;;;;0.00;0.00;;;;;;;22.52;63.23;101166.56;5018135;28;20857;-71
2023/10/06 08:04:29;;;;;;;0.00;0.00;;;;;;;22.49;61.94;101180.00;5043231;28;20134;-71
2023/10/06 08:06:54;;;;;;;0.00;0.00;;;;;;;23.15;61.49;101178.91;5040862;28;20016;-72
2023/10/06 08:09:21;;;;;;;0.00;0.00;;;;;;;24.18;57.32;101175.09;5038146;28;20081;-72
2023/10/06 08:11:48;;;;;;;0.00;0.00;;;;;;;25.79;54.03;101178.31;5036616;28;20021;-71
2023/10/06 08:14:14;;;;;;;0.00;0.00;;;;;;;26.64;49.82;101195.25;5030904;28;20419;-71
2023/10/06 08:16:40;;;;;;;0.00;0.00;;;;;;;27.18;47.38;101191.13;5030530;28;20036;-72
2023/10/06 08:19:06;;;;;;;0.00;0.00;;;;;;;27.30;46.34;101193.84;5009966;28;20555;-73
2023/10/06 08:21:37;;;;;;;0.00;0.00;;;;;;;26.91;46.31;101174.00;5002757;28;20152;-74
2023/10/06 08:24:03;;;;;;;0.00;0.00;;;;;;;27.03;46.05;101183.50;5039524;28;20013;-72
2023/10/06 08:26:28;;;;;;;0.00;0.00;;;;;;;27.20;46.20;101183.16;5020668;28;20075;-72
2023/10/06 08:28:54;;;;;;;0.00;0.00;;;;;;;26.66;45.72;101192.91;5034040;28;20024;-72
2023/10/06 08:31:19;;;;;;;0.00;0.00;;;;;;;25.50;48.41;101182.19;5041207;28;20030;-71
2023/10/06 08:33:45;;;;;;;0.00;0.00;;;;;;;24.60;49.79;101184.63;4999942;28;20589;-71
2023/10/06 08:36:11;;;;;;;0.00;0.00;;;;;;;24.11;52.60;101190.75;5039944;28;20492;-71
2023/10/06 08:38:37;;;;;;;0.00;0.00;;;;;;;24.58;51.54;101188.53;5033025;28;20040;-71
2023/10/06 08:41:04;;;;;;;0.00;0.00;;;;;;;24.13;52.26;101200.44;5042323;28;20075;-71
2023/10/06 08:43:31;;;;;;;0.00;0.00;;;;;;;23.77;52.56;101193.41;5032173;28;20095;-71
2023/10/06 08:45:59;;;;;;;0.00;0.00;;;;;;;23.02;55.06;101200.25;5029351;28;20083;-71
2023/10/06 08:48:31;;;;;;;0.00;0.00;;;;;;;22.27;57.02;101194.09;5020769;28;20034;-72
2023/10/06 08:50:59;;;;;;;0.00;0.00;;;;;;;22.23;58.22;101204.22;5035641;28;20023;-71
2023/10/06 08:53:27;;;;;;;0.00;0.00;;;;;;;21.57;59.37;101197.53;5023670;28;20041;-70
2023/10/06 08:55:54;;;;;;;0.00;0.00;;;;;;;21.66;60.41;101200.34;5021786;28;20333;-71
2023/10/06 08:58:21;;;;;;;0.00;0.00;;;;;;;22.45;59.27;101206.88;4997072;28;20022;-71
2023/10/06 09:00:47;;;;;;;0.00;0.00;;;;;;;23.12;56.93;101213.06;5022568;28;20025;-71
2023/10/06 09:03:14;;;;;;;0.00;0.00;;;;;;;24.18;54.30;101225.38;5042601;28;20075;-72
2023/10/06 09:05:41;;;;;;;0.00;0.00;;;;;;;23.59;53.52;101219.78;5031691;28;20244;-72
2023/10/06 09:08:11;;;;;;;0.00;0.00;;;;;;;22.57;55.65;101224.91;5033579;28;20017;-70
2023/10/06 09:10:40;;;;;;;0.00;0.00;;;;;;;21.13;59.64;101212.34;5012683;28;20116;-72
2023/10/06 09:13:10;;;;;;;0.00;0.00;;;;;;;20.35;63.40;101221.72;5030999;28;20372;-70
2023/10/06 09:15:37;;;;;;;0.00;0.00;;;;;;;20.09;65.51;101219.53;5045900;28;20028;-71
2023/10/06 09:18:29;;;;;;;0.00;0.00;;;;;;;20.03;66.75;101221.63;5036291;28;21777;-72
2023/10/06 09:20:58;;;;;;;0.00;0.00;;;;;;;19.71;67.15;101219.72;5038320;28;20513;-71
2023/10/06 09:23:31;;;;;;;0.00;0.00;;;;;;;19.41;68.15;101226.72;5038540;28;20044;-71
2023/10/06 09:25:58;;;;;;;0.00;0.00;;;;;;;19.29;69.36;101228.03;5037701;28;20028;-72
2023/10/06 09:28:23;;;;;;;0.00;0.00;;;;;;;19.31;69.60;101233.28;5056577;28;20074;-72
2023/10/06 09:31:05;;;;;;;0.00;0.00;;;;;;;19.43;69.76;101241.09;5064371;28;20024;-71
2023/10/06 09:33:37;;;;;;;0.00;0.00;;;;;;;19.50;69.35;101238.75;5037765;28;20024;-70
2023/10/06 09:36:07;;;;;;;0.00;0.00;;;;;;;19.81;68.95;101240.94;5050024;28;20021;-73
2023/10/06 09:38:37;;;;;;;0.00;0.00;;;;;;;19.80;67.01;101245.69;5038195;28;20623;-71
2023/10/06 09:41:05;;;;;;;0.00;0.00;;;;;;;19.73;67.82;101239.69;5062760;28;20459;-71
2023/10/06 09:43:34;;;;;;;0.00;0.00;;;;;;;20.01;66.76;101237.75;5052643;28;20367;-71
2023/10/06 09:46:06;;;;;;;0.00;0.00;;;;;;;20.30;64.21;101228.22;5058903;28;20360;-72
2023/10/06 09:48:34;;;;;;;0.00;0.00;;;;;;;20.58;64.12;101253.16;5053792;28;20025;-70
2023/10/06 09:51:05;;;;;;;0.00;0.00;;;;;;;20.85;63.73;101241.16;5063707;28;20110;-77
2023/10/06 09:53:36;;;;;;;0.00;0.00;;;;;;;21.15;61.87;101243.47;5038760;28;20108;-71
2023/10/06 09:56:03;;;;;;;0.00;0.00;;;;;;;20.66;63.22;101255.22;5061849;28;20029;-71
2023/10/06 09:58:30;;;;;;;0.00;0.00;;;;;;;20.39;65.31;101254.13;5058549;28;20028;-73
2023/10/06 10:00:57;;;;;;;0.00;0.00;;;;;;;20.47;64.88;101238.69;5063664;28;20036;-72
2023/10/06 10:03:23;;;;;;;0.00;0.00;;;;;;;20.54;64.87;101241.00;5047902;28;20024;-72
2023/10/06 10:05:50;;;;;;;0.00;0.00;;;;;;;20.40;64.78;101241.88;5042945;28;20044;-72
2023/10/06 10:08:15;;;;;;;0.00;0.00;;;;;;;20.36;64.19;101243.63;5045146;28;20431;-72
2023/10/06 10:10:44;;;;;;;0.00;0.00;;;;;;;20.49;63.71;101243.94;5033996;28;20032;-72
2023/10/06 10:13:52;;;;;;;0.00;0.00;;;;;;;20.72;63.57;101253.97;5023267;28;20098;-71
2023/10/06 10:16:41;;;;;;;0.00;0.00;;;;;;;20.65;62.61;101236.88;5011785;28;20378;-72
2023/10/06 10:19:27;;;;;;;0.00;0.00;;;;;;;20.46;63.10;101227.88;5057716;28;20021;-72
2023/10/06 10:21:58;;;;;;;0.00;0.00;;;;;;;20.51;63.76;101225.78;5058567;28;20115;-73
2023/10/06 10:24:25;;;;;;;0.00;0.00;;;;;;;20.74;62.16;101243.34;5045717;28;20667;-73
2023/10/06 10:26:53;;;;;;;0.00;0.00;;;;;;;20.74;63.37;101235.00;5042261;28;20027;-75
2023/10/06 10:29:18;;;;;;;0.00;0.00;;;;;;;20.92;61.84;101235.97;5049494;28;20358;-73
2023/10/06 10:31:50;;;;;;;0.00;0.00;;;;;;;21.37;61.22;101240.63;5054385;28;20143;-73
2023/10/06 10:34:38;;;;;;;0.00;0.00;;;;;;;21.38;59.92;101247.84;5037333;28;20024;-73
2023/10/06 10:37:07;;;;;;;0.00;0.00;;;;;;;20.86;60.75;101236.41;5053927;28;20384;-73
2023/10/06 10:39:41;;;;;;;0.00;0.00;;;;;;;20.51;61.47;101231.34;5062490;28;20024;-72
2023/10/06 10:42:08;;;;;;;0.00;0.00;;;;;;;20.71;61.78;101241.19;5054358;28;20029;-73
2023/10/06 10:44:35;;;;;;;0.00;0.00;;;;;;;20.98;61.30;101228.28;5065909;28;20027;-74
2023/10/06 10:47:04;;;;;;;0.00;0.00;;;;;;;21.31;59.80;101235.53;5053676;28;20039;-74
2023/10/06 10:49:32;;;;;;;0.00;0.00;;;;;;;22.67;57.71;101224.59;5033010;28;20478;-73
2023/10/06 10:52:06;;;;;;;0.00;0.00;;;;;;;23.59;53.69;101230.94;5038301;28;20025;-72
2023/10/06 10:54:33;;;;;;;;;;;;;;;23.59;52.65;101223.38;5044788;28;20106;-72
2023/10/06 10:57:18;;;;;;;0.00;0.00;;;;;;;23.44;53.47;101223.97;5027174;28;20428;-73
2023/10/06 11:02:48;;;;;;;0.00;0.00;;;;;;;25.05;49.67;101239.78;5047811;28;20470;-72
2023/10/06 11:05:18;;;;;;;0.00;0.00;;;;;;;26.09;46.16;101248.94;5040980;28;20495;-71
2023/10/06 11:08:05;;;;;;;0.00;0.00;;;;;;;24.82;47.74;101231.78;5041641;28;20120;-73
2023/10/06 11:10:32;;;;;;;0.00;0.00;;;;;;;23.77;50.70;101226.09;5060957;28;20017;-72
2023/10/06 11:13:19;;;;;;;0.00;0.00;;;;;;;23.10;52.44;101215.38;5059776;28;20052;-73
2023/10/06 11:15:44;;;;;;;0.00;0.00;;;;;;;22.89;53.68;101217.19;5044869;28;20035;-72
2023/10/06 11:18:13;;;;;;;0.00;0.00;;;;;;;24.37;52.02;101221.28;5022991;28;20437;-72
2023/10/06 11:20:41;;;;;;;0.00;0.00;;;;;;;26.37;45.95;101220.16;5043446;28;20036;-72
2023/10/06 11:23:07;;;;;;;0.00;0.00;;;;;;;26.80;44.10;101237.41;5041430;28;20032;-72
2023/10/06 11:25:36;;;;;;;0.00;0.00;;;;;;;25.96;44.44;101234.09;5043179;28;20040;-71
2023/10/06 11:28:12;;;;;;;0.00;0.00;;;;;;;24.95;46.68;101229.03;5056368;28;21741;-71
2023/10/06 11:30:42;;;;;;;0.00;0.00;;;;;;;24.15;48.59;101226.06;5043037;28;20028;-73
2023/10/06 11:33:11;;;;;;;0.00;0.00;;;;;;;23.51;50.53;101230.66;5038547;28;20038;-71
2023/10/06 11:35:40;;;;;;;0.00;0.00;;;;;;;23.05;51.84;101229.44;5047416;28;20040;-72
2023/10/06 11:38:10;;;;;;;0.00;0.00;;;;;;;22.09;52.60;101227.50;5060833;28;20051;-72
2023/10/06 11:40:36;;;;;;;0.00;0.00;;;;;;;21.49;55.31;101226.09;5032814;28;20067;-72